Time;durP1;ratioP1;P1;durP2;ratioP2;P2;SDS_P1;SDS_P2;PMS_P1;PMS_P2;Temp;Humidity;BMP_temperature;BMP_pressure;BME280_temperature;BME280_humidity;BME280_pressure;Samples;Min_cycle;Max_cycle;Signal;HPM_P1;HPM_P2
2022/06/02 00:00:43;;;;;;;0.90;0.60;;;;;;;18.48;100.00;99691.25;1734200;80;21105;-53
2022/06/02 00:03:38;;;;;;;1.00;0.50;;;;;;;18.45;100.00;99687.44;1712417;81;21547;-52
2022/06/02 00:06:17;;;;;;;;;;;;;;;18.41;100.00;99685.94;1744931;81;21500;-51
2022/06/02 00:09:19;;;;;;;2.15;0.50;;;;;;;18.36;100.00;99690.41;1739177;80;20163;-52
2022/06/02 00:12:08;;;;;;;0.50;0.50;;;;;;;18.34;100.00;99684.70;1701637;80;892585;-55
2022/06/02 00:15:45;;;;;;;1.20;0.70;;;;;;;18.35;100.00;99685.08;1604899;80;985207;-52
2022/06/02 00:18:32;;;;;;;;;;;;;;;18.35;100.00;99685.08;1698889;80;892834;-54
2022/06/02 00:21:28;;;;;;;0.70;0.67;;;;;;;18.38;100.00;99699.30;1690029;80;892829;-53
2022/06/02 00:24:17;;;;;;;0.83;0.60;;;;;;;18.37;100.00;99704.37;1682733;80;975171;-53
2022/06/02 00:27:23;;;;;;;0.60;0.60;;;;;;;18.37;100.00;99706.27;1554797;80;985198;-53
2022/06/02 00:30:07;;;;;;;1.56;0.54;;;;;;;18.37;100.00;99706.27;1683352;80;974854;-52
2022/06/02 00:33:12;;;;;;;2.08;0.70;;;;;;;18.27;100.00;99702.55;1727326;80;875216;-54
2022/06/02 00:35:58;;;;;;;0.85;0.80;;;;;;;18.27;100.00;99702.55;1747547;80;21185;-52
2022/06/02 00:38:31;;;;;;;2.77;0.60;;;;;;;18.15;100.00;99702.53;1737004;80;21437;-52
2022/06/02 00:41:24;;;;;;;2.08;0.60;;;;;;;18.10;100.00;99706.13;1745237;80;24705;-52
2022/06/02 00:44:21;;;;;;;0.80;0.50;;;;;;;18.07;100.00;99702.28;1714770;80;901864;-53
2022/06/02 00:50:26;;;;;;;1.77;0.60;;;;;;;18.05;100.00;99698.80;1650525;80;974827;-52
2022/06/02 00:53:21;;;;;;;1.43;0.60;;;;;;;18.05;100.00;99698.80;1733226;80;769738;-55
2022/06/02 01:00:07;;;;;;;1.45;0.65;;;;;;;17.93;100.00;99715.27;1744496;80;21042;-56
2022/06/02 01:02:47;;;;;;;0.70;0.60;;;;;;;17.91;100.00;99724.05;1739953;80;21058;-53
2022/06/02 01:08:51;;;;;;;0.70;0.70;;;;;;;17.91;100.00;99723.55;1633026;80;985130;-52
2022/06/02 01:11:44;;;;;;;1.00;0.80;;;;;;;17.91;100.00;99723.55;1499937;80;985141;-53
2022/06/02 01:14:48;;;;;;;2.15;0.60;;;;;;;17.91;100.00;99723.55;1745907;80;21045;-52
2022/06/02 01:17:38;;;;;;;0.90;0.90;;;;;;;17.90;100.00;99751.77;1741808;80;21942;-54
2022/06/02 01:20:35;;;;;;;0.70;0.60;;;;;;;17.88;100.00;99738.76;1741767;80;20919;-56
2022/06/02 01:23:28;;;;;;;2.75;0.60;;;;;;;17.88;100.00;99756.95;1743033;80;21500;-55
2022/06/02 01:26:06;;;;;;;1.80;0.70;;;;;;;17.87;100.00;99734.30;1735525;80;22419;-54
2022/06/02 01:29:14;;;;;;;1.20;0.70;;;;;;;17.90;100.00;99735.43;1731570;80;565314;-57
2022/06/02 01:32:14;;;;;;;0.53;0.53;;;;;;;17.93;100.00;99729.75;1713044;80;984763;-54
2022/06/02 01:39:55;;;;;;;0.93;0.55;;;;;;;17.93;100.00;99729.75;1545496;80;984915;-53
2022/06/02 02:00:06;;;;;;;2.26;0.64;;;;;;;17.93;100.00;99729.75;1499546;80;985056;-53
2022/06/02 02:02:57;;;;;;;2.57;0.60;;;;;;;17.93;100.00;99729.75;1723635;80;892552;-53
2022/06/02 02:05:44;;;;;;;1.82;0.68;;;;;;;17.78;100.00;99725.48;1738554;80;21069;-53
2022/06/02 02:08:49;;;;;;;3.92;0.80;;;;;;;17.74;100.00;99720.80;1655501;80;984872;-53
2022/06/02 02:18:41;;;;;;;3.62;0.70;;;;;;;17.74;100.00;99720.80;1461856;80;985091;-53
2022/06/02 02:21:31;;;;;;;1.47;0.70;;;;;;;17.74;100.00;99720.80;1733478;80;866158;-53
2022/06/02 02:24:18;;;;;;;1.37;0.70;;;;;;;17.69;100.00;99723.52;1735473;80;21079;-53
2022/06/02 02:26:59;;;;;;;1.75;0.62;;;;;;;17.66;100.00;99724.61;1739135;80;21970;-53
2022/06/02 02:30:09;;;;;;;1.42;0.60;;;;;;;17.64;100.00;99726.58;1740843;80;21053;-53
2022/06/02 02:32:57;;;;;;;2.65;0.85;;;;;;;17.63;100.00;99723.97;1738500;80;21889;-54
2022/06/02 02:35:38;;;;;;;1.90;0.70;;;;;;;17.63;100.00;99718.52;1740620;80;21015;-54
2022/06/02 02:38:12;;;;;;;0.90;0.70;;;;;;;17.64;100.00;99726.58;1655132;81;975374;-53
2022/06/02 02:40:48;;;;;;;1.37;0.70;;;;;;;17.69;100.00;99729.80;1736945;80;284386;-54
2022/06/02 02:58:36;;;;;;;0.73;0.70;;;;;;;17.70;100.00;99727.94;1488794;82;984779;-53
2022/06/02 03:01:07;;;;;;;1.02;0.80;;;;;;;17.70;100.00;99727.94;1735096;81;21058;-53
2022/06/02 03:03:54;;;;;;;1.70;0.80;;;;;;;18.05;100.00;99733.34;1744738;80;21828;-52
2022/06/02 03:06:27;;;;;;;2.42;0.80;;;;;;;18.05;100.00;99732.84;1741898;80;21065;-53
2022/06/02 03:09:17;;;;;;;2.22;0.82;;;;;;;18.09;100.00;99737.08;1738267;80;21046;-52
2022/06/02 03:12:08;;;;;;;1.92;1.12;;;;;;;18.11;100.00;99739.20;1740747;80;21045;-53
2022/06/02 03:15:05;;;;;;;4.92;0.85;;;;;;;18.18;100.00;99749.10;1743766;80;21310;-53
2022/06/02 03:17:47;;;;;;;1.43;0.90;;;;;;;18.17;100.00;99744.64;1673426;82;977797;-53
2022/06/02 03:20:41;;;;;;;2.00;0.90;;;;;;;18.19;100.00;99742.67;1670869;84;21103;-54
2022/06/02 03:23:40;;;;;;;1.30;0.80;;;;;;;18.21;100.00;99747.97;1737895;80;20966;-53
2022/06/02 03:31:34;;;;;;;2.00;0.98;;;;;;;18.24;100.00;99757.27;1534679;80;985179;-53
2022/06/02 03:34:44;;;;;;;1.82;1.08;;;;;;;18.24;100.00;99757.27;1501738;80;984453;-54
2022/06/02 03:39:35;;;;;;;1.43;0.97;;;;;;;18.24;100.00;99757.27;1535495;80;975451;-55
2022/06/02 03:42:22;;;;;;;1.37;1.17;;;;;;;18.24;100.00;99757.27;1737755;80;21284;-55
2022/06/02 03:45:19;;;;;;;2.98;1.32;;;;;;;18.54;100.00;99773.91;1739543;80;21383;-52
2022/06/02 03:48:37;;;;;;;1.52;1.20;;;;;;;18.58;100.00;99772.69;1726697;80;21509;-51
2022/06/02 03:51:30;;;;;;;2.55;1.02;;;;;;;18.66;100.00;99768.84;1734658;80;564826;-51
2022/06/02 03:54:27;;;;;;;3.20;1.00;;;;;;;18.76;100.00;99767.11;1708511;80;905734;-51
2022/06/02 03:57:32;;;;;;;1.00;0.80;;;;;;;18.86;100.00;99772.19;1729897;80;866017;-52
2022/06/02 04:00:19;;;;;;;1.37;1.20;;;;;;;18.98;100.00;99770.78;1606761;84;906446;-53
2022/06/02 04:03:06;;;;;;;1.30;1.20;;;;;;;19.10;100.00;99770.65;1560837;84;975287;-53
2022/06/02 04:06:11;;;;;;;1.43;1.10;;;;;;;19.10;100.00;99770.65;1613237;80;977719;-51
2022/06/02 04:09:07;;;;;;;2.50;1.63;;;;;;;19.31;100.00;99780.25;1717599;80;906084;-52
2022/06/02 04:14:56;;;;;;;3.70;1.00;;;;;;;19.42;100.00;99788.91;1698590;80;975618;-53
2022/06/02 04:17:49;;;;;;;1.10;1.00;;;;;;;19.48;100.00;99787.92;1731727;80;21805;-54
2022/06/02 04:20:35;;;;;;;2.00;0.90;;;;;;;19.55;100.00;99783.70;1737307;80;21655;-53
2022/06/02 04:23:43;;;;;;;1.20;1.05;;;;;;;19.63;100.00;99788.02;1640084;80;975404;-55
2022/06/02 04:26:20;;;;;;;1.00;0.90;;;;;;;19.83;100.00;99790.88;1715542;80;906705;-53
2022/06/02 04:29:18;;;;;;;1.50;0.97;;;;;;;19.86;100.00;99792.87;1588431;82;975366;-54
2022/06/02 04:33:20;;;;;;;1.15;1.02;;;;;;;19.86;100.00;99792.87;1520465;80;975419;-54
2022/06/02 04:38:05;;;;;;;0.93;0.75;;;;;;;19.86;100.00;99792.87;1622945;80;985180;-55
2022/06/02 04:44:41;;;;;;;0.80;0.70;;;;;;;19.86;100.00;99792.87;1495574;80;984802;-53
2022/06/02 04:48:03;;;;;;;0.80;0.70;;;;;;;19.86;100.00;99792.87;1615447;80;975260;-55
2022/06/02 04:50:38;;;;;;;0.98;0.65;;;;;;;20.57;100.00;99771.20;1737884;80;21616;-54
2022/06/02 04:53:25;;;;;;;0.70;0.60;;;;;;;20.61;100.00;99761.20;1736161;80;21086;-54
2022/06/02 04:56:04;;;;;;;4.33;0.60;;;;;;;20.68;100.00;99756.91;1733222;80;20999;-54
2022/06/02 04:58:59;;;;;;;3.55;0.70;;;;;;;20.78;100.00;99751.48;1731256;80;21598;-54
2022/06/02 05:01:49;;;;;;;2.05;0.70;;;;;;;20.94;100.00;99749.08;1740134;80;22253;-54
2022/06/02 05:04:36;;;;;;;2.63;0.90;;;;;;;21.00;100.00;99756.75;1722756;80;770272;-53
2022/06/02 05:07:29;;;;;;;2.03;1.03;;;;;;;21.10;100.00;99755.38;1667379;80;975512;-53
2022/06/02 05:10:12;;;;;;;0.70;0.60;;;;;;;21.20;100.00;99756.81;1739754;80;21028;-55
2022/06/02 05:13:16;;;;;;;0.80;0.57;;;;;;;21.27;100.00;99752.48;1671306;80;975147;-56
2022/06/02 05:16:20;;;;;;;0.80;0.60;;;;;;;21.34;100.00;99750.95;1736561;80;21113;-55
2022/06/02 05:21:54;;;;;;;0.60;0.50;;;;;;;21.34;100.00;99756.42;1662831;80;975255;-54
2022/06/02 05:24:54;;;;;;;1.23;0.50;;;;;;;21.34;100.00;99756.42;1706470;80;865914;-55
2022/06/02 05:27:43;;;;;;;2.90;0.50;;;;;;;21.44;100.00;99759.50;1720108;80;915738;-54
2022/06/02 05:30:26;;;;;;;1.40;0.50;;;;;;;21.44;100.00;99762.24;1737888;80;21082;-56
2022/06/02 05:33:13;;;;;;;2.90;0.50;;;;;;;21.43;100.00;99755.56;1734581;80;21161;-53
2022/06/02 05:36:04;;;;;;;1.57;0.50;;;;;;;21.45;100.00;99753.02;1736342;80;21057;-55
2022/06/02 05:38:58;;;;;;;0.60;0.53;;;;;;;21.45;100.00;99753.02;1507510;80;975613;-53
2022/06/02 05:42:01;;;;;;;1.83;0.60;;;;;;;21.65;100.00;99755.28;1710926;80;916206;-54
2022/06/02 05:45:25;;;;;;;0.73;0.60;;;;;;;21.65;100.00;99755.28;1605220;80;984852;-54
2022/06/02 05:48:26;;;;;;;1.17;0.50;;;;;;;21.65;100.00;99755.28;1689522;82;806073;-54
2022/06/02 05:51:14;;;;;;;1.20;0.60;;;;;;;21.65;100.00;99755.28;1696183;82;21067;-55
2022/06/02 05:55:21;;;;;;;0.82;0.60;;;;;;;21.80;100.00;99745.61;1557826;81;985177;-54
2022/06/02 05:58:11;;;;;;;;;;;;;;;21.80;100.00;99745.61;1628508;86;21128;-53
2022/06/02 06:01:03;;;;;;;2.50;0.60;;;;;;;21.95;100.00;99741.06;1620913;86;20268;-53
2022/06/02 06:03:45;;;;;;;1.87;0.78;;;;;;;21.95;100.00;99741.06;1716877;80;21151;-54
2022/06/02 06:08:52;;;;;;;1.00;0.70;;;;;;;22.00;100.00;99750.60;1601635;80;984895;-54
2022/06/02 06:12:04;;;;;;;1.27;0.70;;;;;;;22.00;100.00;99750.60;1614033;80;975141;-54
2022/06/02 06:15:01;;;;;;;0.98;0.82;;;;;;;22.09;100.00;99764.80;1507296;83;975554;-56
2022/06/02 06:17:57;;;;;;;1.57;1.30;;;;;;;22.21;100.00;99761.37;1727409;80;21366;-55
2022/06/02 06:20:57;;;;;;;3.95;3.17;;;;;;;22.15;100.00;99761.46;1735162;80;564762;-54
2022/06/02 06:28:04;;;;;;;8.07;6.50;;;;;;;22.21;100.00;99771.83;1641769;80;975452;-56
2022/06/02 06:30:45;;;;;;;3.52;1.90;;;;;;;22.21;100.00;99771.83;1737500;80;21233;-54
2022/06/02 06:33:27;;;;;;;2.05;1.85;;;;;;;22.48;100.00;99765.55;1716370;80;21391;-55
2022/06/02 06:36:08;;;;;;;4.97;2.90;;;;;;;22.56;100.00;99769.78;1740206;80;21367;-56
2022/06/02 06:43:03;;;;;;;7.83;3.43;;;;;;;22.64;100.00;99775.39;1666670;80;974870;-56
2022/06/02 06:53:34;;;;;;;3.70;2.37;;;;;;;22.64;100.00;99775.39;1532410;80;985113;-54
2022/06/02 06:56:15;;;;;;;3.35;1.40;;;;;;;22.64;100.00;99775.39;1553326;80;975398;-53
2022/06/02 06:59:08;;;;;;;3.87;1.85;;;;;;;23.17;100.00;99780.73;1740240;80;20911;-54
2022/06/02 07:01:56;;;;;;;1.55;1.20;;;;;;;23.14;100.00;99783.27;1673391;80;974871;-54
2022/06/02 07:04:56;;;;;;;3.25;1.30;;;;;;;23.14;100.00;99783.27;1701690;82;20907;-53
2022/06/02 07:08:19;;;;;;;1.95;1.10;;;;;;;23.14;100.00;99783.27;1509690;80;984791;-54
2022/06/02 07:14:06;;;;;;;2.52;1.00;;;;;;;23.31;100.00;99793.94;1722206;80;906587;-53
2022/06/02 07:16:45;;;;;;;1.35;1.20;;;;;;;23.33;100.00;99790.03;1667775;80;975132;-54
2022/06/02 07:19:48;;;;;;;5.10;1.75;;;;;;;23.40;100.00;99789.77;1608938;80;985057;-56
2022/06/02 07:22:42;;;;;;;1.55;1.45;;;;;;;23.40;100.00;99789.77;1707470;80;866143;-55
2022/06/02 07:25:31;;;;;;;1.20;0.80;;;;;;;23.40;100.00;99789.77;1666636;80;975071;-55
2022/06/02 07:28:16;;;;;;;2.87;0.80;;;;;;;23.57;100.00;99796.33;1665322;80;974935;-54
2022/06/02 07:30:54;;;;;;;2.85;1.40;;;;;;;23.57;100.00;99796.33;1723339;80;905900;-54
2022/06/02 07:33:50;;;;;;;4.03;0.88;;;;;;;23.66;100.00;99804.14;1677853;80;975440;-55
2022/06/02 07:36:58;;;;;;;3.33;0.90;;;;;;;23.73;100.00;99806.11;1689000;80;916085;-56
2022/06/02 07:40:09;;;;;;;1.10;1.00;;;;;;;23.73;100.00;99806.11;1640528;80;974997;-54
2022/06/02 07:43:04;;;;;;;3.67;0.70;;;;;;;23.96;100.00;99806.52;1732765;80;21067;-54
2022/06/02 07:45:43;;;;;;;1.70;0.78;;;;;;;24.06;100.00;99813.31;1592272;80;978360;-57
2022/06/02 07:48:33;;;;;;;1.07;0.82;;;;;;;24.18;100.00;99811.16;1734669;80;21110;-56
2022/06/02 07:51:54;;;;;;;0.90;0.80;;;;;;;24.22;100.00;99814.86;1533507;80;975572;-54
2022/06/02 07:54:50;;;;;;;1.10;0.78;;;;;;;24.31;100.00;99810.28;1745685;80;21101;-57
2022/06/02 07:57:37;;;;;;;2.70;0.82;;;;;;;24.40;100.00;99814.83;1744892;80;20991;-55
2022/06/02 08:00:23;;;;;;;0.90;0.72;;;;;;;24.50;100.00;99812.81;1743280;80;21936;-56
2022/06/02 08:03:08;;;;;;;0.85;0.70;;;;;;;24.54;100.00;99811.48;1741694;80;22166;-55
2022/06/02 08:06:17;;;;;;;0.88;0.70;;;;;;;24.59;100.00;99817.86;1742322;80;21030;-53
2022/06/02 08:09:04;;;;;;;2.00;0.70;;;;;;;24.64;100.00;99816.38;1743256;80;21030;-57
2022/06/02 08:11:58;;;;;;;0.93;0.70;;;;;;;24.72;100.00;99815.05;1737423;80;20994;-57
2022/06/02 08:14:47;;;;;;;3.50;0.70;;;;;;;24.75;100.00;99818.83;1745397;80;21622;-55
2022/06/02 08:17:23;;;;;;;1.82;1.10;;;;;;;24.79;100.00;99818.87;1744778;80;21157;-55
2022/06/02 08:19:58;;;;;;;1.10;0.75;;;;;;;24.87;100.00;99830.44;1742390;80;21595;-57
2022/06/02 08:23:02;;;;;;;3.87;0.70;;;;;;;24.96;100.00;99818.98;1743054;80;21036;-56
2022/06/02 08:25:33;;;;;;;1.70;0.80;;;;;;;25.03;100.00;99820.05;1716850;80;21069;-55
2022/06/02 08:28:20;;;;;;;1.27;0.80;;;;;;;25.12;100.00;99822.69;1746261;80;21141;-55
2022/06/02 08:32:03;;;;;;;2.40;1.06;;;;;;;25.19;100.00;99820.13;1681897;80;985006;-55
2022/06/02 08:35:04;;;;;;;1.30;0.80;;;;;;;25.19;100.00;99820.13;1576230;80;975232;-58
2022/06/02 08:38:21;;;;;;;1.77;0.80;;;;;;;25.19;100.00;99820.13;1512048;80;984995;-57
2022/06/02 08:42:22;;;;;;;2.65;0.80;;;;;;;25.19;100.00;99820.13;1566726;80;985201;-55
2022/06/02 08:45:34;;;;;;;0.78;0.70;;;;;;;25.19;100.00;99820.13;1549292;80;975463;-55
2022/06/02 08:48:41;;;;;;;2.00;0.70;;;;;;;25.67;100.00;99826.88;1607639;80;975201;-56
2022/06/02 08:51:46;;;;;;;2.60;0.70;;;;;;;25.67;100.00;99826.88;1742273;80;21654;-57
2022/06/02 08:55:03;;;;;;;2.65;0.78;;;;;;;25.75;100.00;99826.90;1501007;80;977617;-58
2022/06/02 09:00:20;;;;;;;0.70;0.70;;;;;;;25.75;100.00;99826.90;1497488;80;977729;-55
2022/06/02 09:02:59;;;;;;;2.40;0.90;;;;;;;25.75;100.00;99826.90;1562089;80;977297;-57
2022/06/02 09:05:54;;;;;;;0.70;0.70;;;;;;;25.75;100.00;99826.90;1691747;80;906254;-56
2022/06/02 09:10:04;;;;;;;1.47;0.78;;;;;;;25.75;100.00;99826.90;1564901;80;984131;-56
2022/06/02 09:13:18;;;;;;;2.33;0.88;;;;;;;-144.06;100.00;116433.64;1504569;81;975701;-56
2022/06/02 09:16:25;;;;;;;0.95;0.80;;;;;;;25.75;100.00;99826.90;1502385;80;984764;-56
2022/06/02 09:19:11;;;;;;;1.35;0.78;;;;;;;25.75;100.00;99826.90;1521211;80;985003;-56
2022/06/02 09:21:58;;;;;;;3.08;0.80;;;;;;;25.75;100.00;99826.90;1621623;80;984799;-56
2022/06/02 09:25:00;;;;;;;1.22;0.78;;;;;;;25.75;100.00;99826.90;1512774;81;985050;-56
2022/06/02 09:27:55;;;;;;;0.70;0.70;;;;;;;25.75;100.00;99826.90;1553563;80;975185;-58
2022/06/02 09:31:09;;;;;;;0.85;0.70;;;;;;;25.75;100.00;99826.90;1514323;82;985114;-55
2022/06/02 09:34:27;;;;;;;1.38;0.80;;;;;;;25.75;100.00;99826.90;1452476;84;984831;-58
2022/06/02 09:37:25;;;;;;;2.98;0.90;;;;;;;25.75;100.00;99826.90;1535980;82;975501;-56
2022/06/02 09:42:24;;;;;;;0.95;0.60;;;;;;;25.75;100.00;99826.90;1483061;82;985125;-56
2022/06/02 09:45:11;;;;;;;2.50;0.78;;;;;;;25.75;100.00;99826.90;1472705;84;975572;-56
2022/06/02 09:49:37;;;;;;;0.75;0.60;;;;;;;27.24;100.00;99806.60;1672875;78;974996;-57
2022/06/02 09:56:04;;;;;;;5.27;0.70;;;;;;;26.99;100.00;99804.45;1659971;84;21092;-58
2022/06/02 09:58:57;;;;;;;2.62;0.60;;;;;;;26.99;100.00;99800.83;1614751;84;575147;-56
2022/06/02 10:01:41;;;;;;;0.90;0.70;;;;;;;27.09;100.00;99797.34;1440440;85;984978;-55
2022/06/02 10:04:54;;;;;;;0.90;0.60;;;;;;;-144.06;100.00;116433.64;1512434;84;984713;-56
2022/06/02 10:08:53;;;;;;;2.56;0.66;;;;;;;27.09;100.00;99797.34;1435784;85;984661;-56
2022/06/02 10:12:54;;;;;;;0.74;0.44;;;;;;;27.09;100.00;99797.34;1538597;84;975523;-56
2022/06/02 10:14:52;;;;;;;0.70;0.53;;;;;;;27.09;100.00;99797.34;1597383;85;984883;-56
2022/06/02 10:17:52;;;;;;;1.67;0.50;;;;;;;27.09;100.00;99797.34;1492053;85;975429;-59
2022/06/02 10:21:04;;;;;;;2.40;0.60;;;;;;;27.09;100.00;99797.34;1439461;84;976904;-55
2022/06/02 10:24:02;;;;;;;0.70;0.50;;;;;;;27.48;100.00;99772.45;1661266;85;21110;-57
2022/06/02 10:27:08;;;;;;;1.57;0.60;;;;;;;27.43;100.00;99762.47;1475904;85;985209;-55
2022/06/02 10:30:12;;;;;;;0.75;0.47;;;;;;;27.43;100.00;99762.47;1544898;84;975129;-58
2022/06/02 10:33:23;;;;;;;2.20;0.60;;;;;;;27.43;100.00;99762.47;1640499;85;865024;-57
2022/06/02 10:37:30;;;;;;;0.82;0.60;;;;;;;27.52;100.00;99754.47;1432581;85;984494;-58
2022/06/02 10:40:35;;;;;;;0.80;0.70;;;;;;;27.52;100.00;99754.47;1658593;85;21093;-59
2022/06/02 10:46:30;;;;;;;0.50;0.47;;;;;;;27.71;100.00;99747.13;1429579;85;985148;-59
2022/06/02 10:49:32;;;;;;;1.27;0.70;;;;;;;27.71;100.00;99747.13;1455065;85;975437;-60
2022/06/02 10:52:43;;;;;;;2.42;0.60;;;;;;;27.71;100.00;99747.13;1441577;85;975672;-60
2022/06/02 10:55:36;;;;;;;0.80;0.60;;;;;;;27.87;100.00;99728.16;1445475;85;984734;-60
2022/06/02 10:58:28;;;;;;;0.80;0.55;;;;;;;27.87;100.00;99728.16;1603833;84;892233;-57
2022/06/02 11:01:34;;;;;;;0.60;0.50;;;;;;;27.76;100.00;99718.37;1620394;86;21193;-57
2022/06/02 11:05:02;;;;;;;1.62;0.60;;;;;;;27.76;100.00;99705.93;1580268;85;985049;-59
2022/06/02 11:07:44;;;;;;;0.55;0.53;;;;;;;27.76;100.00;99705.93;1554775;85;975025;-57
2022/06/02 11:10:49;;;;;;;1.62;0.60;;;;;;;27.91;100.00;99706.49;1612104;86;975203;-55
2022/06/02 11:13:48;;;;;;;1.02;0.60;;;;;;;27.89;100.00;99699.79;1569912;86;985175;-55
2022/06/02 11:16:27;;;;;;;3.90;0.60;;;;;;;27.89;100.00;99699.79;1475683;85;985186;-56
2022/06/02 11:20:20;;;;;;;0.60;0.50;;;;;;;27.89;100.00;99699.79;1521341;85;975432;-57
2022/06/02 11:23:06;;;;;;;1.15;0.62;;;;;;;27.89;100.00;116433.64;1474369;86;975452;-56
2022/06/02 11:26:08;;;;;;;2.25;0.50;;;;;;;27.89;100.00;99699.79;1481296;86;974946;-54
2022/06/02 11:30:36;;;;;;;1.02;0.50;;;;;;;27.84;100.00;99679.59;1473439;86;975375;-56
2022/06/02 11:33:34;;;;;;;2.47;0.53;;;;;;;27.84;100.00;99679.59;1477731;85;985120;-57
2022/06/02 11:36:19;;;;;;;2.60;0.50;;;;;;;27.84;100.00;99679.59;1432957;85;985115;-58
2022/06/02 11:39:09;;;;;;;0.80;0.60;;;;;;;28.17;100.00;99676.02;1606262;87;21612;-58
2022/06/02 11:42:05;;;;;;;1.47;0.60;;;;;;;28.05;100.00;99672.49;1514159;86;985240;-55
2022/06/02 11:45:13;;;;;;;0.88;0.50;;;;;;;28.05;100.00;99672.49;1621100;85;866543;-56
2022/06/02 11:48:11;;;;;;;1.92;0.50;;;;;;;28.05;100.00;99672.49;1630975;85;21096;-54
2022/06/02 11:51:10;;;;;;;0.78;0.70;;;;;;;28.05;100.00;99658.14;1585072;85;892848;-54
2022/06/02 11:54:30;;;;;;;4.23;0.63;;;;;;;28.02;100.00;99651.58;1568572;85;892993;-54
2022/06/02 11:57:47;;;;;;;1.20;0.62;;;;;;;28.05;100.00;99650.36;1428841;87;985444;-53
2022/06/02 12:00:56;;;;;;;1.72;0.80;;;;;;;28.05;100.00;99650.36;1453938;89;975476;-55
2022/06/02 12:03:31;;;;;;;1.07;0.82;;;;;;;28.18;100.00;99645.91;1641926;85;20975;-57
2022/06/02 12:10:49;;;;;;;1.52;0.60;;;;;;;28.21;100.00;99648.31;1498962;86;985158;-57
2022/06/02 12:13:24;;;;;;;1.35;0.60;;;;;;;28.21;100.00;99648.31;1533895;87;975023;-59
2022/06/02 12:16:15;;;;;;;0.78;0.60;;;;;;;28.45;100.00;99639.39;1610635;87;21155;-55
2022/06/02 12:18:56;;;;;;;0.70;0.60;;;;;;;28.45;100.00;99638.00;1580881;87;984392;-59
2022/06/02 12:23:38;;;;;;;2.36;0.70;;;;;;;28.45;100.00;99638.00;1388223;87;984530;-56
2022/06/02 12:35:00;;;;;;;1.00;0.50;;;;;;;28.45;100.00;116433.64;1574398;87;984649;-58
2022/06/02 12:38:13;;;;;;;0.86;0.50;;;;;;;28.45;100.00;99638.00;1387923;87;984538;-55
2022/06/02 12:40:52;;;;;;;2.50;0.70;;;;;;;28.45;100.00;99638.00;1601695;87;895270;-58
2022/06/02 12:43:36;;;;;;;0.88;0.60;;;;;;;28.73;100.00;99632.64;1546946;87;975226;-55
2022/06/02 12:46:17;;;;;;;1.22;0.60;;;;;;;28.74;100.00;99637.99;1651518;85;21101;-54
2022/06/02 12:49:01;;;;;;;3.27;0.68;;;;;;;28.74;100.00;99635.75;1560994;85;975177;-55
2022/06/02 12:52:48;;;;;;;1.95;0.60;;;;;;;28.74;100.00;99635.75;1560161;85;975062;-55
2022/06/02 12:57:18;;;;;;;2.93;0.50;;;;;;;28.74;100.00;99635.75;1451213;85;975407;-57
2022/06/02 12:59:53;;;;;;;1.27;0.50;;;;;;;28.74;100.00;99635.75;1645780;86;21743;-56
2022/06/02 13:03:02;;;;;;;2.08;0.60;;;;;;;28.60;100.00;99607.86;1650422;85;21101;-57
2022/06/02 13:06:11;;;;;;;1.07;0.80;;;;;;;28.51;100.00;99605.39;1600332;85;892319;-57
2022/06/02 13:09:34;;;;;;;0.72;0.55;;;;;;;28.51;100.00;99605.39;1457468;86;985127;-56
2022/06/02 13:12:42;;;;;;;0.57;0.50;;;;;;;28.51;100.00;99605.39;1483702;85;975370;-59
2022/06/02 13:15:48;;;;;;;1.45;0.50;;;;;;;28.48;100.00;99598.34;1495451;85;975193;-56
2022/06/02 13:18:34;;;;;;;5.87;0.50;;;;;;;28.46;100.00;99585.73;1497883;85;985272;-56
2022/06/02 13:21:23;;;;;;;0.70;0.50;;;;;;;28.57;100.00;99585.26;1554002;86;985103;-55
2022/06/02 13:24:16;;;;;;;0.70;0.50;;;;;;;28.57;100.00;99585.26;1645974;85;399919;-57
2022/06/02 13:27:32;;;;;;;2.25;0.60;;;;;;;28.56;100.00;99580.25;1571458;86;975490;-56
2022/06/02 13:32:21;;;;;;;1.18;0.50;;;;;;;28.56;100.00;99580.25;1423768;86;984692;-55
2022/06/02 13:36:49;;;;;;;0.50;0.40;;;;;;;28.56;100.00;99580.25;1435099;85;975556;-56
2022/06/02 13:39:47;;;;;;;3.62;0.60;;;;;;;28.56;100.00;99580.25;1547094;86;985102;-56
2022/06/02 13:43:10;;;;;;;1.72;0.53;;;;;;;28.56;100.00;99580.25;1593521;85;975397;-59
2022/06/02 13:46:20;;;;;;;1.63;0.50;;;;;;;28.47;100.00;99580.02;1580673;86;985094;-60
2022/06/02 13:50:17;;;;;;;1.17;0.50;;;;;;;28.47;100.00;99580.02;1428733;86;984518;-59
2022/06/02 13:52:58;;;;;;;3.40;0.60;;;;;;;28.47;100.00;99580.02;1450681;86;975705;-56
2022/06/02 13:57:31;;;;;;;0.55;0.47;;;;;;;28.51;100.00;99596.56;1439445;85;984825;-55
2022/06/02 14:03:11;;;;;;;5.13;0.60;;;;;;;28.51;100.00;99596.56;1444207;86;985208;-55
2022/06/02 14:06:08;;;;;;;2.83;0.50;;;;;;;28.51;100.00;99596.56;1495037;85;985066;-59
2022/06/02 14:13:40;;;;;;;1.17;0.62;;;;;;;28.51;100.00;99596.56;1575062;86;984841;-55
2022/06/02 14:16:45;;;;;;;1.73;0.60;;;;;;;28.51;100.00;99596.56;1626844;86;892625;-57
2022/06/02 14:30:11;;;;;;;0.50;0.50;;;;;;;28.53;100.00;99592.22;1451136;86;984805;-57
2022/06/02 14:33:12;;;;;;;1.75;0.68;;;;;;;28.53;100.00;99592.22;1636062;86;21091;-57
2022/06/02 14:35:57;;;;;;;2.05;0.55;;;;;;;-144.06;100.00;116433.64;1637684;86;21127;-57
2022/06/02 14:48:05;;;;;;;3.27;1.02;;;;;;;28.40;100.00;99554.16;1637521;86;21018;-58
2022/06/02 14:53:32;;;;;;;0.85;0.60;;;;;;;28.40;100.00;99554.16;1584841;86;985351;-58
2022/06/02 14:56:13;;;;;;;4.55;0.62;;;;;;;28.40;100.00;99554.16;1636798;86;21107;-57
2022/06/02 14:58:50;;;;;;;8.65;0.70;;;;;;;27.58;100.00;99525.67;1433543;86;975543;-59
2022/06/02 15:01:38;;;;;;;1.47;0.60;;;;;;;27.55;100.00;99524.69;1624734;86;21066;-59
2022/06/02 15:04:39;;;;;;;2.35;0.60;;;;;;;27.43;100.00;99519.23;1582960;86;974922;-58
2022/06/02 15:11:38;;;;;;;0.77;0.70;;;;;;;27.37;100.00;99521.37;1450266;85;985032;-57
2022/06/02 15:14:55;;;;;;;6.63;1.10;;;;;;;27.37;100.00;99521.37;1609561;86;902365;-56
2022/06/02 15:17:54;;;;;;;3.40;0.80;;;;;;;27.37;100.00;99521.37;1430972;86;977865;-59
2022/06/02 15:20:37;;;;;;;3.90;0.60;;;;;;;27.18;100.00;99510.83;1528413;86;974966;-57
2022/06/02 15:23:54;;;;;;;1.30;0.70;;;;;;;27.04;100.00;99518.89;1639781;85;21691;-57
2022/06/02 15:26:46;;;;;;;1.95;0.60;;;;;;;26.95;100.00;99528.28;1638404;86;21639;-56
2022/06/02 15:32:50;;;;;;;2.23;1.00;;;;;;;26.95;100.00;99534.33;1452348;87;975699;-55
2022/06/02 15:38:23;;;;;;;0.88;0.70;;;;;;;26.95;100.00;99534.33;1401535;86;975567;-55
2022/06/02 15:41:12;;;;;;;2.90;0.90;;;;;;;26.95;100.00;99534.33;1591616;86;974859;-57
2022/06/02 15:44:00;;;;;;;2.08;1.02;;;;;;;26.41;100.00;99548.08;1620251;86;21095;-55
2022/06/02 15:47:09;;;;;;;0.95;0.78;;;;;;;26.29;100.00;99551.73;1637526;85;21703;-55
2022/06/02 15:50:14;;;;;;;2.25;1.00;;;;;;;26.20;100.00;99544.50;1526098;86;984883;-58
2022/06/02 15:53:07;;;;;;;6.12;1.98;;;;;;;26.20;100.00;99544.50;1627406;85;769749;-57
2022/06/02 15:55:56;;;;;;;16.15;5.12;;;;;;;26.05;100.00;99544.05;1637854;86;21065;-54
2022/06/02 15:59:00;;;;;;;13.68;6.25;;;;;;;25.96;100.00;99552.87;1636430;86;21545;-56
2022/06/02 16:01:54;;;;;;;12.82;6.90;;;;;;;25.89;100.00;99557.38;1474526;85;974955;-59
2022/06/02 16:05:03;;;;;;;17.15;8.45;;;;;;;25.87;100.00;99551.17;1622347;86;21382;-53
2022/06/02 16:07:47;;;;;;;19.00;8.60;;;;;;;25.71;100.00;99546.56;1538323;86;975487;-57
2022/06/02 16:16:35;;;;;;;19.93;9.47;;;;;;;25.57;100.00;99538.98;1678011;78;976057;-54
2022/06/02 16:19:35;;;;;;;10.58;6.65;;;;;;;25.57;100.00;99538.98;1629038;79;977020;-54
2022/06/02 16:22:09;;;;;;;11.35;6.50;;;;;;;25.33;100.00;99551.41;1801615;78;20963;-55
2022/06/02 16:24:54;;;;;;;6.95;4.87;;;;;;;25.15;100.00;99548.83;1787019;78;21016;-54
2022/06/02 16:29:16;;;;;;;4.40;4.00;;;;;;;25.03;100.00;99549.67;1625429;78;984429;-56
2022/06/02 16:32:10;;;;;;;3.90;2.52;;;;;;;25.03;100.00;99549.67;1721126;78;975587;-59